createdAt,value
2019-05-06T00:03:28.615Z,3.27
2019-05-06T00:07:33.979Z,4.03
2019-05-06T00:11:37.578Z,4.87
2019-05-06T00:15:41.039Z,4.30
2019-05-06T00:19:44.813Z,3.40
2019-05-06T00:23:49.911Z,4.15
2019-05-06T00:32:15.065Z,4.40
2019-05-06T00:36:18.370Z,4.22
2019-05-06T00:44:41.546Z,3.80
2019-05-06T00:48:45.038Z,4.10
2019-05-06T00:52:49.555Z,4.87
2019-05-06T00:56:54.091Z,3.73
2019-05-06T01:00:57.838Z,5.23
2019-05-06T01:05:01.592Z,3.62
2019-05-06T01:09:08.779Z,4.78
2019-05-06T01:17:33.910Z,4.67
2019-05-06T01:25:40.427Z,4.58
2019-05-06T01:29:44.182Z,3.98
2019-05-06T01:33:47.828Z,4.35
2019-05-06T01:37:54.582Z,5.03
2019-05-06T01:46:21.192Z,4.20
2019-05-06T01:50:24.638Z,3.95
2019-05-06T01:54:28.082Z,5.27
2019-05-06T01:58:33.464Z,5.03
2019-05-06T02:02:36.714Z,4.70
2019-05-06T02:06:40.150Z,4.55
2019-05-06T02:10:46.188Z,5.08
2019-05-06T02:14:49.965Z,4.90
2019-05-06T02:18:54.087Z,5.15
2019-05-06T02:23:04.196Z,5.62
2019-05-06T02:27:07.806Z,5.67
2019-05-06T02:31:25.833Z,4.90
2019-05-06T02:35:34.751Z,4.87
2019-05-06T02:39:38.456Z,5.30
2019-05-06T02:43:43.542Z,4.70
2019-05-06T02:47:49.423Z,4.58
2019-05-06T02:51:53.463Z,4.57
2019-05-06T02:55:58.457Z,5.53
2019-05-06T03:00:05.048Z,5.07
2019-05-06T03:04:07.488Z,5.87
2019-05-06T03:08:13.520Z,4.45
2019-05-06T03:12:16.485Z,4.45
2019-05-06T03:16:19.972Z,4.55
2019-05-06T03:20:58.532Z,5.25
2019-05-06T03:25:06.739Z,5.08
2019-05-06T03:29:09.096Z,5.47
2019-05-06T03:33:36.217Z,4.87
2019-05-06T03:37:17.864Z,5.70
2019-05-06T03:41:26.069Z,5.00
2019-05-06T03:49:42.620Z,4.65
2019-05-06T03:53:47.046Z,4.87
2019-05-06T03:57:53.896Z,6.03
2019-05-06T04:01:56.300Z,5.17
2019-05-06T04:06:00.442Z,5.92
2019-05-06T04:10:06.299Z,4.70
2019-05-06T04:14:13.715Z,5.05
2019-05-06T04:18:17.319Z,5.30
2019-05-06T04:22:28.423Z,4.22
2019-05-06T04:26:39.252Z,6.05
2019-05-06T04:30:43.224Z,6.08
2019-05-06T04:34:47.131Z,6.53
2019-05-06T04:38:53.938Z,5.70
2019-05-06T04:42:57.075Z,6.55
2019-05-06T04:47:05.005Z,6.72
2019-05-06T04:51:06.069Z,6.37
2019-05-06T04:55:09.936Z,6.53
2019-05-06T04:59:14.094Z,6.28
2019-05-06T05:03:17.815Z,6.12
2019-05-06T05:07:22.459Z,6.97
2019-05-06T05:11:33.109Z,7.07
2019-05-06T05:15:50.044Z,6.83
2019-05-06T05:19:53.503Z,7.70
2019-05-06T05:23:56.950Z,7.50
2019-05-06T05:28:02.180Z,6.90
2019-05-06T05:32:05.927Z,8.63
2019-05-06T05:36:09.758Z,7.60
2019-05-06T05:40:13.766Z,7.05
2019-05-06T05:44:19.315Z,6.72
2019-05-06T05:48:32.430Z,7.35
2019-05-06T05:52:35.586Z,7.40
2019-05-06T05:56:39.367Z,6.35
2019-05-06T06:00:42.825Z,5.15
2019-05-06T06:04:54.809Z,5.53
2019-05-06T06:08:52.366Z,6.30
2019-05-06T06:12:55.995Z,3.60
2019-05-06T06:17:13.195Z,4.58
2019-05-06T06:21:24.829Z,4.97
2019-05-06T06:25:23.992Z,4.70
2019-05-06T06:29:27.811Z,4.62
2019-05-06T06:33:33.003Z,4.85
2019-05-06T06:37:42.665Z,4.83
2019-05-06T06:41:46.637Z,4.78
2019-05-06T06:45:50.439Z,2.58
2019-05-06T06:49:54.159Z,4.83
2019-05-06T06:53:57.612Z,5.40
2019-05-06T06:58:03.628Z,4.70
2019-05-06T07:06:22.631Z,3.75
2019-05-06T07:10:44.514Z,4.85
2019-05-06T07:14:49.666Z,4.40
2019-05-06T07:18:53.112Z,3.10
2019-05-06T07:22:56.554Z,3.63
2019-05-06T07:31:21.904Z,4.40
2019-05-06T07:35:19.418Z,3.50
2019-05-06T07:39:24.086Z,2.25
2019-05-06T07:43:29.761Z,5.43
2019-05-06T07:47:34.895Z,2.08
2019-05-06T07:51:38.374Z,2.50
2019-05-06T07:55:42.476Z,2.95
2019-05-06T07:59:46.211Z,1.57
2019-05-06T08:03:49.687Z,2.12
2019-05-06T08:07:55.165Z,2.83
2019-05-06T08:11:58.440Z,2.63
2019-05-06T08:16:02.375Z,2.40
2019-05-06T08:20:07.236Z,2.25
2019-05-06T08:24:12.034Z,2.30
2019-05-06T08:28:15.604Z,2.62
2019-05-06T08:32:19.054Z,1.90
2019-05-06T08:36:26.985Z,2.15
2019-05-06T08:40:32.179Z,2.37
2019-05-06T08:44:35.758Z,2.13
2019-05-06T08:48:39.206Z,1.70
2019-05-06T08:52:56.180Z,2.58
2019-05-06T08:56:59.690Z,1.50
2019-05-06T09:01:07.428Z,1.55
2019-05-06T09:05:12.233Z,2.08
2019-05-06T09:09:15.762Z,1.90
2019-05-06T09:13:19.231Z,1.97
2019-05-06T09:17:22.987Z,2.12
2019-05-06T09:21:26.699Z,1.93
2019-05-06T09:25:32.143Z,1.20
2019-05-06T09:29:36.938Z,2.30
2019-05-06T09:33:42.497Z,1.70
2019-05-06T09:37:46.143Z,2.37
2019-05-06T09:41:49.905Z,1.70
2019-05-06T09:45:53.416Z,2.70
2019-05-06T09:49:57.203Z,1.40
2019-05-06T09:54:04.039Z,2.33
2019-05-06T09:58:09.343Z,2.70
2019-05-06T10:02:12.783Z,1.70
2019-05-06T10:06:16.226Z,2.02
2019-05-06T10:10:19.682Z,2.55
2019-05-06T10:14:23.531Z,1.80
2019-05-06T10:18:27.070Z,2.50
2019-05-06T10:22:32.494Z,2.52
2019-05-06T10:26:37.332Z,2.40
2019-05-06T10:30:41.107Z,2.50
2019-05-06T10:34:44.564Z,2.58
2019-05-06T10:39:02.106Z,2.98
2019-05-06T10:43:08.034Z,1.67
2019-05-06T10:47:12.150Z,2.67
2019-05-06T10:51:26.310Z,2.17
2019-05-06T10:55:32.306Z,2.10
2019-05-06T10:59:34.972Z,2.50
2019-05-06T11:03:38.751Z,2.08
2019-05-06T11:07:43.078Z,1.98
2019-05-06T11:11:47.102Z,3.02
2019-05-06T11:15:52.778Z,2.67
2019-05-06T11:19:55.724Z,1.93
2019-05-06T11:23:59.431Z,2.47
2019-05-06T11:28:03.066Z,2.02
2019-05-06T11:32:08.534Z,2.35
2019-05-06T11:36:15.184Z,3.27
2019-05-06T11:40:18.997Z,3.03
2019-05-06T11:44:23.997Z,2.72
2019-05-06T11:48:28.147Z,2.67
2019-05-06T11:52:34.439Z,3.00
2019-05-06T12:00:44.510Z,1.00
2019-05-06T12:04:48.045Z,0.82
2019-05-06T12:08:52.481Z,1.40
2019-05-06T12:12:56.388Z,1.27
2019-05-06T12:17:02.047Z,0.85
2019-05-06T12:21:11.370Z,1.10
2019-05-06T12:25:14.379Z,0.53
2019-05-06T12:29:15.935Z,0.40
2019-05-06T12:33:32.719Z,0.82
2019-05-06T12:37:36.039Z,0.70
2019-05-06T12:41:43.035Z,0.60
2019-05-06T12:45:48.655Z,0.60
2019-05-06T12:49:53.382Z,0.68
2019-05-06T12:53:57.091Z,0.90
2019-05-06T12:58:02.772Z,1.00
2019-05-06T13:02:05.704Z,0.87
2019-05-06T13:06:09.516Z,1.10
2019-05-06T13:10:13.823Z,1.12
2019-05-06T13:14:17.270Z,1.25
2019-05-06T13:18:22.975Z,1.70
2019-05-06T13:22:44.304Z,2.10
2019-05-06T13:26:52.739Z,2.20
2019-05-06T13:31:13.522Z,2.80
2019-05-06T13:35:05.783Z,3.15
2019-05-06T13:43:35.139Z,1.70
2019-05-06T13:47:43.234Z,0.73
2019-05-06T13:51:48.495Z,0.40
2019-05-06T13:55:52.648Z,0.35
2019-05-06T13:59:56.272Z,0.30
2019-05-06T14:03:59.716Z,0.55
2019-05-06T14:08:04.847Z,0.40
2019-05-06T14:12:08.786Z,0.42
2019-05-06T14:16:13.081Z,0.55
2019-05-06T14:20:17.348Z,0.37
2019-05-06T14:24:22.251Z,0.70
2019-05-06T14:32:32.990Z,0.70
2019-05-06T14:36:36.811Z,0.98
2019-05-06T14:40:58.505Z,0.85
2019-05-06T14:45:01.957Z,1.60
2019-05-06T14:49:05.395Z,1.42
2019-05-06T14:53:08.877Z,1.15
2019-05-06T14:57:14.047Z,1.25
2019-05-06T15:01:17.825Z,1.37
2019-05-06T15:05:22.673Z,1.35
2019-05-06T15:09:26.258Z,0.90
2019-05-06T15:13:32.069Z,1.40
2019-05-06T15:17:36.870Z,1.60
2019-05-06T15:21:42.518Z,1.10
2019-05-06T15:25:45.622Z,1.60
2019-05-06T15:29:53.028Z,1.07
2019-05-06T15:33:57.525Z,0.83
2019-05-06T15:38:02.629Z,0.87
2019-05-06T15:42:06.335Z,1.00
2019-05-06T15:46:12.133Z,0.95
2019-05-06T15:50:15.549Z,1.13
2019-05-06T15:54:19.035Z,1.02
2019-05-06T15:58:23.005Z,0.80
2019-05-06T16:02:26.842Z,0.80
2019-05-06T16:06:33.030Z,1.25
2019-05-06T16:10:51.252Z,1.30
2019-05-06T16:14:42.480Z,1.43
2019-05-06T16:18:46.074Z,1.33
2019-05-06T16:22:52.252Z,1.73
2019-05-06T16:26:55.913Z,1.32
2019-05-06T16:30:59.419Z,1.82
2019-05-06T16:35:03.114Z,1.27
2019-05-06T16:39:07.970Z,1.52
2019-05-06T16:43:12.574Z,1.90
2019-05-06T16:47:18.127Z,1.75
2019-05-06T16:51:22.264Z,1.37
2019-05-06T16:55:27.912Z,1.67
2019-05-06T17:03:49.408Z,1.65
2019-05-06T17:07:53.375Z,1.80
2019-05-06T17:11:56.831Z,2.47
2019-05-06T17:16:02.357Z,2.00
2019-05-06T17:20:05.985Z,1.10
2019-05-06T17:24:13.173Z,0.60
2019-05-06T17:28:18.707Z,0.40
2019-05-06T17:32:38.847Z,0.40
2019-05-06T17:36:42.459Z,0.30
2019-05-06T17:40:45.921Z,0.55
2019-05-06T17:44:50.472Z,0.60
2019-05-06T17:49:04.491Z,0.70
2019-05-06T17:53:07.929Z,0.47
2019-05-06T17:57:12.313Z,0.40
2019-05-06T18:01:17.714Z,0.55
2019-05-06T18:09:25.556Z,0.80
2019-05-06T18:13:29.369Z,0.75
2019-05-06T18:17:33.523Z,0.53
2019-05-06T18:21:37.122Z,0.70
2019-05-06T18:25:42.551Z,1.10
2019-05-06T18:29:46.167Z,0.70
2019-05-06T18:33:49.602Z,0.85
2019-05-06T18:37:53.044Z,0.98
2019-05-06T18:41:56.506Z,1.05
2019-05-06T18:46:02.873Z,1.25
2019-05-06T18:50:06.911Z,1.00
2019-05-06T18:54:12.393Z,1.37
2019-05-06T18:58:15.858Z,1.20
2019-05-06T19:02:19.645Z,0.83
2019-05-06T19:06:23.390Z,1.33
2019-05-06T19:10:28.551Z,1.67
2019-05-06T19:14:33.042Z,1.40
2019-05-06T19:18:38.634Z,1.53
2019-05-06T19:22:43.535Z,1.70
2019-05-06T19:30:51.680Z,1.92
2019-05-06T19:34:55.736Z,1.87
2019-05-06T19:38:59.179Z,1.72
2019-05-06T19:43:03.041Z,2.05
2019-05-06T19:47:06.880Z,1.82
2019-05-06T19:51:10.325Z,1.83
2019-05-06T19:55:13.855Z,2.25
2019-05-06T19:59:17.577Z,2.60
2019-05-06T20:03:23.115Z,2.20
2019-05-06T20:07:42.753Z,2.30
2019-05-06T20:11:46.452Z,2.90
2019-05-06T20:15:52.102Z,2.30
2019-05-06T20:19:55.420Z,2.35
2019-05-06T20:23:58.858Z,3.58
2019-05-06T20:28:02.521Z,2.98
2019-05-06T20:32:05.999Z,2.08
2019-05-06T20:36:09.459Z,2.30
2019-05-06T20:40:14.742Z,2.22
2019-05-06T20:44:18.271Z,2.12
2019-05-06T20:48:23.472Z,2.80
2019-05-06T20:52:30.187Z,2.55
2019-05-06T21:00:37.104Z,3.60
2019-05-06T21:04:40.538Z,3.17
2019-05-06T21:08:43.996Z,3.90
2019-05-06T21:12:47.796Z,4.75
2019-05-06T21:16:51.504Z,4.33
2019-05-06T21:20:54.962Z,4.70
2019-05-06T21:24:58.494Z,5.67
2019-05-06T21:34:06.034Z,4.70
2019-05-06T21:38:09.502Z,4.28
2019-05-06T21:42:13.244Z,5.80
2019-05-06T21:46:16.702Z,5.35
2019-05-06T21:50:20.139Z,5.55
2019-05-06T21:54:23.594Z,5.50
2019-05-06T21:58:27.376Z,6.17
2019-05-06T22:02:32.724Z,5.53
2019-05-06T22:06:36.647Z,4.80
2019-05-06T22:10:42.125Z,5.90
2019-05-06T22:14:45.815Z,5.35
2019-05-06T22:18:49.249Z,5.85
2019-05-06T22:22:52.779Z,5.80
2019-05-06T22:26:56.646Z,5.15
2019-05-06T22:31:00.354Z,6.05
2019-05-06T22:35:04.765Z,6.25
2019-05-06T22:39:08.345Z,5.97
2019-05-06T22:43:12.304Z,6.40
2019-05-06T22:47:15.892Z,5.70
2019-05-06T22:51:19.326Z,5.42
2019-05-06T22:55:22.765Z,5.47
2019-05-06T22:59:26.206Z,5.25
2019-05-06T23:03:32.087Z,5.75
2019-05-06T23:07:36.684Z,5.33
2019-05-06T23:11:42.465Z,5.35
2019-05-06T23:19:48.810Z,5.40
2019-05-06T23:23:54.477Z,4.28
2019-05-06T23:27:57.409Z,4.65
2019-05-06T23:32:02.843Z,5.08
2019-05-06T23:36:06.021Z,5.12
2019-05-06T23:40:45.734Z,5.20
2019-05-06T23:45:25.487Z,5.17
2019-05-06T23:50:05.216Z,5.20
2019-05-06T23:54:45.245Z,4.65
2019-05-06T23:58:48.702Z,5.30
